createdAt,value
2023-05-16T00:02:24.106Z,8.44
2023-05-16T00:07:28.161Z,8.46
2023-05-16T00:12:34.714Z,8.43
2023-05-16T00:17:39.600Z,8.27
2023-05-16T00:22:44.420Z,8.18
2023-05-16T00:27:48.123Z,8.17
2023-05-16T00:32:54.902Z,8.11
2023-05-16T00:38:00.390Z,8.16
2023-05-16T00:43:04.478Z,8.15
2023-05-16T00:48:10.547Z,8.14
2023-05-16T00:53:14.408Z,8.11
2023-05-16T00:58:18.933Z,8.11
2023-05-16T01:03:23.029Z,8.11
2023-05-16T01:08:27.534Z,8.03
2023-05-16T01:13:58.080Z,8.02
2023-05-16T01:19:21.728Z,8.05
2023-05-16T01:24:45.140Z,8.08
2023-05-16T01:29:48.843Z,7.98
2023-05-16T01:34:52.918Z,7.88
2023-05-16T01:40:08.175Z,7.82
2023-05-16T01:45:25.418Z,7.91
2023-05-16T01:50:30.261Z,8.11
2023-05-16T01:55:45.679Z,8.04
2023-05-16T02:00:49.531Z,8.05
2023-05-16T02:05:54.124Z,8.12
2023-05-16T02:10:57.825Z,8.12
2023-05-16T02:16:01.655Z,8.08
2023-05-16T02:21:05.390Z,8.16
2023-05-16T02:26:09.445Z,8.26
2023-05-16T02:31:14.420Z,8.27
2023-05-16T02:36:18.276Z,8.32
2023-05-16T02:41:22.654Z,8.38
2023-05-16T02:46:29.256Z,8.39
2023-05-16T02:51:33.245Z,8.41
2023-05-16T02:56:37.734Z,8.41
2023-05-16T03:01:41.661Z,8.34
2023-05-16T03:06:45.471Z,8.27
2023-05-16T03:11:49.329Z,8.31
2023-05-16T03:16:56.535Z,8.40
2023-05-16T03:22:00.293Z,8.46
2023-05-16T03:27:06.082Z,8.51
2023-05-16T03:32:11.974Z,8.62
2023-05-16T03:37:16.774Z,8.70
2023-05-16T03:42:20.554Z,9.08
2023-05-16T03:47:25.756Z,10.16
2023-05-16T03:52:29.774Z,11.05
2023-05-16T03:57:34.332Z,11.83
2023-05-16T04:02:41.287Z,12.81
2023-05-16T04:07:45.144Z,13.68
2023-05-16T04:12:49.314Z,14.34
2023-05-16T04:17:53.036Z,14.55
2023-05-16T04:22:56.825Z,14.68
2023-05-16T04:28:00.557Z,14.89
2023-05-16T04:33:04.518Z,15.45
2023-05-16T04:38:09.347Z,15.54
2023-05-16T04:43:14.086Z,15.74
2023-05-16T04:48:17.953Z,16.39
2023-05-16T04:53:21.859Z,17.02
2023-05-16T04:58:25.587Z,16.65
2023-05-16T05:03:29.487Z,16.73
2023-05-16T05:08:33.168Z,16.05
2023-05-16T05:13:36.939Z,15.13
2023-05-16T05:18:41.261Z,14.68
2023-05-16T05:23:45.060Z,14.38
2023-05-16T05:29:00.989Z,14.32
2023-05-16T05:34:09.307Z,14.15
2023-05-16T05:39:13.030Z,14.05
2023-05-16T05:44:17.225Z,14.04
2023-05-16T05:49:21.097Z,13.89
2023-05-16T05:54:25.225Z,13.87
2023-05-16T05:59:29.014Z,14.02
2023-05-16T06:04:33.313Z,14.01
2023-05-16T06:09:37.109Z,13.89
2023-05-16T06:14:41.026Z,13.93
2023-05-16T06:19:45.644Z,14.04
2023-05-16T06:24:49.250Z,14.09
2023-05-16T06:29:52.975Z,14.32
2023-05-16T06:34:56.602Z,14.56
2023-05-16T06:40:00.381Z,14.82
2023-05-16T06:45:04.809Z,14.72
2023-05-16T06:50:08.982Z,14.83
2023-05-16T06:55:16.814Z,14.96
2023-05-16T07:00:21.066Z,15.03
2023-05-16T07:05:24.843Z,14.97
2023-05-16T07:10:28.798Z,15.05
2023-05-16T07:15:32.722Z,15.31
2023-05-16T07:20:36.846Z,15.49
2023-05-16T07:25:41.663Z,15.62
2023-05-16T07:30:45.726Z,15.72
2023-05-16T07:36:00.926Z,15.83
2023-05-16T07:41:12.180Z,15.93
2023-05-16T07:46:16.108Z,16.13
2023-05-16T07:51:20.250Z,16.03
2023-05-16T07:56:24.427Z,16.19
2023-05-16T08:01:28.396Z,16.16
2023-05-16T08:06:32.369Z,16.23
2023-05-16T08:11:36.680Z,16.43
2023-05-16T08:16:40.572Z,16.38
2023-05-16T08:21:44.406Z,16.46
2023-05-16T08:26:48.148Z,16.71
2023-05-16T08:31:52.663Z,16.97
2023-05-16T08:36:56.611Z,17.11
2023-05-16T08:42:00.971Z,17.26
2023-05-16T08:47:16.482Z,17.74
2023-05-16T08:52:28.342Z,17.60
2023-05-16T08:57:34.227Z,17.81
2023-05-16T09:02:42.385Z,17.73
2023-05-16T09:07:47.228Z,17.55
2023-05-16T09:12:52.559Z,17.92
2023-05-16T09:17:56.363Z,17.77
2023-05-16T09:23:00.982Z,18.19
2023-05-16T09:28:05.073Z,18.64
2023-05-16T09:33:09.047Z,18.51
2023-05-16T09:38:17.367Z,17.85
2023-05-16T09:43:26.025Z,17.90
2023-05-16T09:48:30.027Z,17.75
2023-05-16T09:53:34.742Z,18.21
2023-05-16T09:58:41.462Z,18.79
2023-05-16T10:03:45.598Z,18.99
2023-05-16T10:08:50.498Z,18.72
2023-05-16T10:13:55.517Z,18.82
2023-05-16T10:19:01.950Z,19.27
2023-05-16T10:24:08.097Z,19.07
2023-05-16T10:29:12.381Z,18.76
2023-05-16T10:34:18.715Z,18.60
2023-05-16T10:39:22.779Z,18.53
2023-05-16T10:44:26.667Z,18.64
2023-05-16T10:49:32.132Z,18.95
2023-05-16T10:54:52.515Z,19.27
2023-05-16T11:00:02.205Z,19.39
2023-05-16T11:05:07.475Z,19.58
2023-05-16T11:10:17.652Z,19.43
2023-05-16T11:15:28.939Z,19.27
2023-05-16T11:20:35.912Z,18.89
2023-05-16T11:25:41.603Z,18.86
2023-05-16T11:30:51.383Z,18.69
2023-05-16T11:41:18.254Z,18.64
2023-05-16T11:46:22.890Z,18.40
2023-05-16T11:51:27.115Z,18.31
2023-05-16T11:56:32.571Z,18.24
2023-05-16T12:01:38.368Z,18.25
2023-05-16T12:06:48.770Z,18.24
2023-05-16T12:11:53.648Z,18.19
2023-05-16T12:16:57.689Z,18.39
2023-05-16T12:22:02.250Z,18.18
2023-05-16T12:27:07.103Z,18.05
2023-05-16T12:32:11.191Z,18.01
2023-05-16T12:37:15.139Z,17.72
2023-05-16T12:42:20.364Z,17.40
2023-05-16T12:47:24.226Z,17.15
2023-05-16T12:52:29.796Z,17.20
2023-05-16T12:57:35.500Z,17.15
2023-05-16T13:02:41.164Z,17.11
2023-05-16T13:07:45.431Z,17.03
2023-05-16T13:12:49.320Z,16.96
2023-05-16T13:17:53.396Z,16.61
2023-05-16T13:22:57.233Z,16.35
2023-05-16T13:28:02.361Z,16.20
2023-05-16T13:33:06.241Z,15.99
2023-05-16T13:38:12.426Z,15.83
2023-05-16T13:43:16.701Z,15.68
2023-05-16T13:48:21.737Z,15.59
2023-05-16T13:53:25.694Z,15.47
2023-05-16T13:58:29.577Z,15.38
2023-05-16T14:03:34.316Z,15.35
2023-05-16T14:08:38.141Z,15.33
2023-05-16T14:13:42.076Z,15.31
2023-05-16T14:18:46.121Z,15.18
2023-05-16T14:23:51.884Z,14.99
2023-05-16T14:28:57.341Z,14.77
2023-05-16T14:34:01.242Z,14.58
2023-05-16T14:39:05.115Z,14.44
2023-05-16T14:44:09.763Z,14.33
2023-05-16T14:49:19.149Z,14.19
2023-05-16T14:54:23.631Z,13.99
2023-05-16T14:59:28.495Z,13.94
2023-05-16T15:04:33.041Z,13.83
2023-05-16T15:09:37.054Z,13.78
2023-05-16T15:14:40.715Z,13.66
2023-05-16T15:19:44.456Z,13.63
2023-05-16T15:24:55.604Z,13.62
2023-05-16T15:30:02.787Z,13.58
2023-05-16T15:35:07.026Z,13.58
2023-05-16T15:40:11.526Z,13.60
2023-05-16T15:45:15.141Z,13.62
2023-05-16T15:50:18.875Z,13.55
2023-05-16T15:55:22.658Z,13.50
2023-05-16T16:00:26.803Z,13.35
2023-05-16T16:05:30.650Z,13.20
2023-05-16T16:10:35.058Z,13.12
2023-05-16T16:15:39.809Z,13.06
2023-05-16T16:20:43.598Z,13.00
2023-05-16T16:25:47.332Z,12.92
2023-05-16T16:30:51.323Z,12.86
2023-05-16T16:35:55.938Z,12.80
2023-05-16T16:40:59.690Z,12.76
2023-05-16T16:46:03.431Z,12.72
2023-05-16T16:51:07.567Z,12.66
2023-05-16T16:56:11.321Z,12.61
2023-05-16T17:01:15.172Z,12.55
2023-05-16T17:06:19.548Z,12.49
2023-05-16T17:11:23.948Z,12.44
2023-05-16T17:16:31.698Z,12.38
2023-05-16T17:21:37.577Z,12.33
2023-05-16T17:26:41.411Z,12.31
2023-05-16T17:31:51.286Z,12.29
2023-05-16T17:36:54.983Z,12.26
2023-05-16T17:42:00.091Z,12.23
2023-05-16T17:47:07.376Z,12.20
2023-05-16T17:52:11.337Z,12.13
2023-05-16T17:57:15.959Z,12.06
2023-05-16T18:02:20.321Z,11.97
2023-05-16T18:07:28.200Z,11.90
2023-05-16T18:12:32.066Z,11.84
2023-05-16T18:17:36.035Z,11.76
2023-05-16T18:22:40.015Z,11.70
2023-05-16T18:27:46.454Z,11.61
2023-05-16T18:32:51.699Z,11.54
2023-05-16T18:37:56.216Z,11.48
2023-05-16T18:43:00.815Z,11.43
2023-05-16T18:48:05.463Z,11.39
2023-05-16T18:53:10.478Z,11.35
2023-05-16T18:58:16.235Z,11.33
2023-05-16T19:03:21.109Z,11.31
2023-05-16T19:08:31.302Z,11.30
2023-05-16T19:13:42.377Z,11.28
2023-05-16T19:18:47.657Z,11.28
2023-05-16T19:23:52.578Z,11.28
2023-05-16T19:29:01.057Z,11.27
2023-05-16T19:34:06.883Z,11.25
2023-05-16T19:39:10.875Z,11.25
2023-05-16T19:44:14.930Z,11.24
2023-05-16T19:49:21.311Z,11.20
2023-05-16T19:54:25.468Z,11.18
2023-05-16T19:59:29.915Z,11.15
2023-05-16T20:04:33.781Z,11.10
2023-05-16T20:09:37.921Z,11.06
2023-05-16T20:14:42.485Z,11.03
2023-05-16T20:19:47.854Z,10.99
2023-05-16T20:24:52.121Z,10.91
2023-05-16T20:29:57.491Z,10.81
2023-05-16T20:35:04.770Z,10.71
2023-05-16T20:40:10.718Z,10.64
2023-05-16T20:45:15.940Z,10.59
2023-05-16T20:50:20.685Z,10.54
2023-05-16T20:55:26.363Z,10.48
2023-05-16T21:00:30.444Z,10.43
2023-05-16T21:05:38.208Z,10.37
2023-05-16T21:10:42.388Z,10.36
2023-05-16T21:15:47.711Z,10.33
2023-05-16T21:20:51.490Z,10.33
2023-05-16T21:25:55.769Z,10.31
2023-05-16T21:31:00.055Z,10.29
2023-05-16T21:36:04.324Z,10.29
2023-05-16T21:41:08.211Z,10.28
2023-05-16T21:46:12.221Z,10.25
2023-05-16T21:51:19.775Z,10.22
2023-05-16T21:56:32.437Z,10.21
2023-05-16T22:01:36.562Z,10.19
2023-05-16T22:06:40.562Z,10.17
2023-05-16T22:11:44.394Z,10.15
2023-05-16T22:16:48.072Z,10.14
2023-05-16T22:21:51.846Z,10.13
2023-05-16T22:26:55.912Z,10.13
2023-05-16T22:31:59.699Z,10.11
2023-05-16T22:37:04.514Z,10.09
2023-05-16T22:42:10.786Z,10.07
2023-05-16T22:47:15.838Z,10.05
2023-05-16T22:52:19.768Z,10.02
2023-05-16T22:57:24.644Z,10.00
2023-05-16T23:02:30.946Z,9.98
2023-05-16T23:07:34.989Z,9.96
2023-05-16T23:12:40.443Z,9.92
2023-05-16T23:17:44.908Z,9.91
2023-05-16T23:22:48.976Z,9.91
2023-05-16T23:27:54.011Z,9.89
2023-05-16T23:32:58.187Z,9.87
2023-05-16T23:38:03.640Z,9.86
2023-05-16T23:43:09.911Z,9.84
2023-05-16T23:48:13.910Z,9.83
2023-05-16T23:53:20.222Z,9.82
2023-05-16T23:58:24.118Z,9.81
